Main page
METAR-TAF:

METAR-TAF

Airports :

Koksijde Air Base

Koksijde, Belgium

latitude: 51-05N, longitude: 002-39E, elevation: 4 m

Current weather observation

The report was made 1 hour and 16 minutes ago, at 07:55 UTC
Wind 2 kt from variable directions
Temperature 17°C
Humidity 82%
Pressure 1028 hPa
Visibility: 8000 m
Few clouds at a height of 2000 ft

METAR: EBFN 210755Z VRB02KT 8000 FEW020 17/14 Q1028 BLU BLU

Time: 11:11 (09:11 UTC)

Forecast

The report was made 3 hours and 30 minutes ago, at 05:41 UTC
Forecast valid from 21 at 07 UTC to 21 at 16 UTC
Wind 3 kt from variable directions
Visibility 10 km or more
Few clouds at a height of 4000 ft
Temporary
from 21 at 07 UTC to 21 at 09 UTC
Visibility: 6000 m

TAF: EBFN 210541Z 2107/2116 VRB03KT 9999 FEW040 TEMPO 2107/2109 6000

Weather observations and forecasts of more than 4000 airports (METAR and TAF reports).

The available stations are represented by yellow and red dots on the map.

Hover mouse over dot to see the name of the station.

Then click to see weather observations and forecasts.

To change the map : click on the green buttons with a black cross to zoom in, on the green button with a dash to zoom out, or on the green arrows for adjacent maps.


METAR-TAF: